createdAt,value
2023-11-06T00:00:23.121Z,18.54
2023-11-06T00:02:49.481Z,18.53
2023-11-06T00:05:15.903Z,18.55
2023-11-06T00:07:42.225Z,18.52
2023-11-06T00:10:08.501Z,18.50
2023-11-06T00:12:34.827Z,18.49
2023-11-06T00:15:01.080Z,18.48
2023-11-06T00:17:27.429Z,18.45
2023-11-06T00:19:53.760Z,18.45
2023-11-06T00:22:20.074Z,18.40
2023-11-06T00:24:46.359Z,18.41
2023-11-06T00:27:12.695Z,18.38
2023-11-06T00:29:39.048Z,18.35
2023-11-06T00:32:05.374Z,18.36
2023-11-06T00:34:31.647Z,18.31
2023-11-06T00:36:57.918Z,18.32
2023-11-06T00:39:24.172Z,18.32
2023-11-06T00:41:50.436Z,18.31
2023-11-06T00:44:16.739Z,18.29
2023-11-06T00:46:43.070Z,18.29
2023-11-06T00:49:10.545Z,18.29
2023-11-06T00:51:36.893Z,18.28
2023-11-06T00:54:03.169Z,18.26
2023-11-06T00:56:29.495Z,18.21
2023-11-06T00:58:55.795Z,18.21
2023-11-06T01:01:22.111Z,18.18
2023-11-06T01:03:48.438Z,18.19
2023-11-06T01:06:14.746Z,18.20
2023-11-06T01:08:41.042Z,18.17
2023-11-06T01:11:07.334Z,18.16
2023-11-06T01:13:33.592Z,18.13
2023-11-06T01:15:59.878Z,18.11
2023-11-06T01:18:26.283Z,18.12
2023-11-06T01:20:52.585Z,18.11
2023-11-06T01:23:18.977Z,18.08
2023-11-06T01:25:45.316Z,18.05
2023-11-06T01:28:11.589Z,18.05
2023-11-06T01:30:37.913Z,18.00
2023-11-06T01:33:04.241Z,18.03
2023-11-06T01:35:30.537Z,18.01
2023-11-06T01:37:56.812Z,17.97
2023-11-06T01:40:23.072Z,17.97
2023-11-06T01:42:49.323Z,17.95
2023-11-06T01:45:15.626Z,17.91
2023-11-06T01:47:41.952Z,17.90
2023-11-06T01:50:08.468Z,17.85
2023-11-06T01:52:34.729Z,17.87
2023-11-06T01:55:00.982Z,17.87
2023-11-06T01:57:27.241Z,17.85
2023-11-06T01:59:53.487Z,17.83
2023-11-06T02:02:19.833Z,17.82
2023-11-06T02:04:46.253Z,17.81
2023-11-06T02:07:12.529Z,17.81
2023-11-06T02:09:38.827Z,17.82
2023-11-06T02:12:05.064Z,17.79
2023-11-06T02:14:31.318Z,17.79
2023-11-06T02:16:57.593Z,17.76
2023-11-06T02:19:23.871Z,17.76
2023-11-06T02:21:58.428Z,17.77
2023-11-06T02:24:25.565Z,17.77
2023-11-06T02:26:51.812Z,17.78
2023-11-06T02:29:18.126Z,17.77
2023-11-06T02:31:44.398Z,17.71
2023-11-06T02:34:10.708Z,17.71
2023-11-06T02:36:37.070Z,17.70
2023-11-06T02:39:03.337Z,17.69
2023-11-06T02:41:29.632Z,17.67
2023-11-06T02:43:55.941Z,17.67
2023-11-06T02:46:22.221Z,17.67
2023-11-06T02:48:48.499Z,17.67
2023-11-06T02:51:14.918Z,17.68
2023-11-06T02:53:41.167Z,17.63
2023-11-06T02:56:07.506Z,17.60
2023-11-06T02:58:33.783Z,17.59
2023-11-06T03:01:00.035Z,17.63
2023-11-06T03:03:26.323Z,17.62
2023-11-06T03:05:52.710Z,17.64
2023-11-06T03:08:19.023Z,17.64
2023-11-06T03:10:45.295Z,17.59
2023-11-06T03:13:11.561Z,17.57
2023-11-06T03:15:37.849Z,17.58
2023-11-06T03:18:04.230Z,17.57
2023-11-06T03:20:30.597Z,17.57
2023-11-06T03:22:56.881Z,17.60
2023-11-06T03:25:23.168Z,17.50
2023-11-06T03:27:49.483Z,17.53
2023-11-06T03:30:15.747Z,17.54
2023-11-06T03:32:42.024Z,17.55
2023-11-06T03:35:08.301Z,17.54
2023-11-06T03:37:34.567Z,17.55
2023-11-06T03:40:00.854Z,17.55
2023-11-06T03:42:27.148Z,17.53
2023-11-06T03:44:53.414Z,17.50
2023-11-06T03:47:19.711Z,17.49
2023-11-06T03:49:46.014Z,17.45
2023-11-06T03:52:12.377Z,17.49
2023-11-06T03:54:38.687Z,17.51
2023-11-06T03:57:04.938Z,17.53
2023-11-06T03:59:31.275Z,17.51
2023-11-06T04:01:57.562Z,17.53
2023-11-06T04:04:23.817Z,17.52
2023-11-06T04:06:50.071Z,17.48
2023-11-06T04:09:16.323Z,17.45
2023-11-06T04:11:42.579Z,17.48
2023-11-06T04:14:08.859Z,17.52
2023-11-06T04:16:35.147Z,17.48
2023-11-06T04:19:01.586Z,17.51
2023-11-06T04:21:27.847Z,17.50
2023-11-06T04:23:54.147Z,17.48
2023-11-06T04:26:20.437Z,17.51
2023-11-06T04:28:46.762Z,17.48
2023-11-06T04:31:13.014Z,17.47
2023-11-06T04:33:39.436Z,17.47
2023-11-06T04:36:05.711Z,17.48
2023-11-06T04:38:32.002Z,17.45
2023-11-06T04:40:58.314Z,17.47
2023-11-06T04:43:24.579Z,17.41
2023-11-06T04:45:50.854Z,17.51
2023-11-06T04:48:17.247Z,17.49
2023-11-06T04:50:43.681Z,17.49
2023-11-06T04:53:09.964Z,17.44
2023-11-06T04:55:36.285Z,17.40
2023-11-06T04:58:02.564Z,17.45
2023-11-06T05:00:28.819Z,17.49
2023-11-06T05:02:55.099Z,17.48
2023-11-06T05:05:21.428Z,17.45
2023-11-06T05:07:47.830Z,17.44
2023-11-06T05:10:14.093Z,17.44
2023-11-06T05:12:40.358Z,17.50
2023-11-06T05:15:06.620Z,17.42
2023-11-06T05:17:33.045Z,17.41
2023-11-06T05:19:59.401Z,17.45
2023-11-06T05:22:25.704Z,17.46
2023-11-06T05:24:51.961Z,17.42
2023-11-06T05:27:18.215Z,17.41
2023-11-06T05:29:44.483Z,17.45
2023-11-06T05:32:13.169Z,17.43
2023-11-06T05:34:39.831Z,17.43
2023-11-06T05:37:06.077Z,17.45
2023-11-06T05:39:32.363Z,17.42
2023-11-06T05:41:58.609Z,17.38
2023-11-06T05:44:24.902Z,17.43
2023-11-06T05:46:51.219Z,17.44
2023-11-06T05:49:17.468Z,17.37
2023-11-06T05:51:43.738Z,17.37
2023-11-06T05:54:10.006Z,17.43
2023-11-06T05:56:36.327Z,17.38
2023-11-06T05:59:02.676Z,17.39
2023-11-06T06:01:28.967Z,17.35
2023-11-06T06:03:55.329Z,17.38
2023-11-06T06:06:21.643Z,17.38
2023-11-06T06:08:47.920Z,17.39
2023-11-06T06:11:14.242Z,17.40
2023-11-06T06:13:40.585Z,17.37
2023-11-06T06:16:06.842Z,17.36
2023-11-06T06:18:33.232Z,17.37
2023-11-06T06:20:59.564Z,17.37
2023-11-06T06:23:25.850Z,17.37
2023-11-06T06:25:52.191Z,17.41
2023-11-06T06:28:18.474Z,17.40
2023-11-06T06:30:44.735Z,17.44
2023-11-06T06:33:11.088Z,17.36
2023-11-06T06:35:37.519Z,17.41
2023-11-06T06:38:03.847Z,17.37
2023-11-06T06:40:32.570Z,17.40
2023-11-06T06:43:00.619Z,17.37
2023-11-06T06:45:26.874Z,17.42
2023-11-06T06:47:53.211Z,17.37
2023-11-06T06:50:21.042Z,17.40
2023-11-06T06:52:48.898Z,17.28
2023-11-06T06:55:15.157Z,17.30
2023-11-06T06:57:41.420Z,17.35
2023-11-06T07:00:07.686Z,17.31
2023-11-06T07:02:34.143Z,17.37
2023-11-06T07:05:00.567Z,17.36
2023-11-06T07:07:26.887Z,17.35
2023-11-06T07:09:53.158Z,17.35
2023-11-06T07:12:19.416Z,17.30
2023-11-06T07:14:45.665Z,17.39
2023-11-06T07:17:11.937Z,17.35
2023-11-06T07:19:38.401Z,17.29
2023-11-06T07:22:04.788Z,17.34
2023-11-06T07:24:31.053Z,17.28
2023-11-06T07:26:57.416Z,17.28
2023-11-06T07:29:23.778Z,17.27
2023-11-06T07:31:50.046Z,17.23
2023-11-06T07:34:16.602Z,17.23
2023-11-06T07:36:43.558Z,17.28
2023-11-06T07:39:09.970Z,17.27
2023-11-06T07:41:36.279Z,17.28
2023-11-06T07:44:02.577Z,17.24
2023-11-06T07:46:28.851Z,17.31
2023-11-06T07:48:55.178Z,17.29
2023-11-06T07:51:21.442Z,17.29
2023-11-06T07:53:47.724Z,17.31
2023-11-06T07:56:14.021Z,17.26
2023-11-06T07:58:41.243Z,17.28
2023-11-06T08:01:07.684Z,17.30
2023-11-06T08:03:33.971Z,17.28
2023-11-06T08:06:00.347Z,17.27
2023-11-06T08:08:26.759Z,17.26
2023-11-06T08:10:53.067Z,17.30
2023-11-06T08:13:19.323Z,17.23
2023-11-06T08:15:45.574Z,17.23
2023-11-06T08:18:11.882Z,17.23
2023-11-06T08:20:38.295Z,17.26
2023-11-06T08:23:04.679Z,17.25
2023-11-06T08:25:30.977Z,17.26
2023-11-06T08:27:57.230Z,17.26
2023-11-06T08:30:23.491Z,17.26
2023-11-06T08:32:49.880Z,17.23
2023-11-06T08:35:16.310Z,17.21
2023-11-06T08:37:42.558Z,17.26
2023-11-06T08:40:08.820Z,17.30
2023-11-06T08:42:35.095Z,17.29
2023-11-06T08:45:01.368Z,17.30
2023-11-06T08:47:27.649Z,17.33
2023-11-06T08:49:53.913Z,17.40
2023-11-06T08:52:20.167Z,17.42
2023-11-06T08:54:46.460Z,17.40
2023-11-06T08:57:12.805Z,17.44
2023-11-06T08:59:39.231Z,17.44
2023-11-06T09:02:05.547Z,17.51
2023-11-06T09:04:31.864Z,17.51
2023-11-06T09:06:58.142Z,17.52
2023-11-06T09:09:24.403Z,17.53
2023-11-06T09:11:50.650Z,17.59
2023-11-06T09:14:16.941Z,17.71
2023-11-06T09:16:43.230Z,17.74
2023-11-06T09:19:09.583Z,17.73
2023-11-06T09:21:35.920Z,17.74
2023-11-06T09:24:02.215Z,17.77
2023-11-06T09:26:28.540Z,17.77
2023-11-06T09:28:54.811Z,17.73
2023-11-06T09:31:21.226Z,17.78
2023-11-06T09:33:47.580Z,17.79
2023-11-06T09:36:14.008Z,17.79
2023-11-06T09:38:40.344Z,17.83
2023-11-06T09:41:06.774Z,17.86
2023-11-06T09:43:33.096Z,17.89
2023-11-06T09:45:59.357Z,17.93
2023-11-06T09:48:25.812Z,17.95
2023-11-06T09:50:52.235Z,17.99
2023-11-06T09:53:18.703Z,17.99
2023-11-06T09:55:44.993Z,18.04
2023-11-06T09:58:11.712Z,18.09
2023-11-06T10:00:38.065Z,18.16
2023-11-06T10:03:04.462Z,18.20
2023-11-06T10:05:30.935Z,18.27
2023-11-06T10:07:57.277Z,18.29
2023-11-06T10:10:23.556Z,18.37
2023-11-06T10:12:49.816Z,18.36
2023-11-06T10:15:16.081Z,18.43
2023-11-06T10:17:42.517Z,18.41
2023-11-06T10:20:11.276Z,18.41
2023-11-06T10:22:37.885Z,18.46
2023-11-06T10:25:04.154Z,18.46
2023-11-06T10:27:30.407Z,18.48
2023-11-06T10:29:56.696Z,18.52
2023-11-06T10:32:23.044Z,18.57
2023-11-06T10:34:50.371Z,18.56
2023-11-06T10:37:17.082Z,18.61
2023-11-06T10:39:43.353Z,18.64
2023-11-06T10:42:09.608Z,18.65
2023-11-06T10:44:35.975Z,18.67
2023-11-06T10:47:02.349Z,18.70
2023-11-06T10:49:28.669Z,18.71
2023-11-06T10:51:54.977Z,18.71
2023-11-06T10:54:24.495Z,18.77
2023-11-06T10:56:51.058Z,18.82
2023-11-06T10:59:17.378Z,18.83
2023-11-06T11:01:43.639Z,18.87
2023-11-06T11:04:10.023Z,18.90
2023-11-06T11:06:36.338Z,18.88
2023-11-06T11:09:02.610Z,18.78
2023-11-06T11:11:28.888Z,18.66
2023-11-06T11:13:55.181Z,18.56
2023-11-06T11:16:21.440Z,18.49
2023-11-06T11:18:47.768Z,18.49
2023-11-06T11:21:14.067Z,18.46
2023-11-06T11:23:42.051Z,18.44
2023-11-06T11:26:09.184Z,18.45
2023-11-06T11:28:35.447Z,18.48
2023-11-06T11:31:01.690Z,18.51
2023-11-06T11:33:28.024Z,18.51
2023-11-06T11:35:54.311Z,18.54
2023-11-06T11:38:20.603Z,18.61
2023-11-06T11:40:46.971Z,18.62
2023-11-06T11:43:13.477Z,18.63
2023-11-06T11:45:39.817Z,18.64
2023-11-06T11:48:06.097Z,18.65
2023-11-06T11:50:32.411Z,18.68
2023-11-06T11:52:58.713Z,18.72
2023-11-06T11:55:25.000Z,18.71
2023-11-06T11:57:51.324Z,18.72
2023-11-06T12:00:17.571Z,18.72
2023-11-06T12:02:43.917Z,18.74
2023-11-06T12:05:10.298Z,18.75
2023-11-06T12:07:36.681Z,18.80
2023-11-06T12:10:03.185Z,18.82
2023-11-06T12:12:29.667Z,18.84
2023-11-06T12:14:55.949Z,18.85
2023-11-06T12:17:22.343Z,18.87
2023-11-06T12:19:48.780Z,18.90
2023-11-06T12:22:15.132Z,18.93
2023-11-06T12:24:41.455Z,19.00
2023-11-06T12:27:07.719Z,19.07
2023-11-06T12:29:34.032Z,19.10
2023-11-06T12:32:00.310Z,19.36
2023-11-06T12:34:26.677Z,19.52
2023-11-06T12:36:52.962Z,19.48
2023-11-06T12:39:19.218Z,19.42
2023-11-06T12:41:45.553Z,19.44
2023-11-06T12:44:11.869Z,19.42
2023-11-06T12:46:39.929Z,19.40
2023-11-06T12:49:07.614Z,19.39
2023-11-06T12:51:33.893Z,19.36
2023-11-06T12:54:00.153Z,19.38
2023-11-06T12:56:26.423Z,19.36
2023-11-06T12:58:52.728Z,19.39
2023-11-06T13:01:19.149Z,19.40
2023-11-06T13:03:45.527Z,19.40
2023-11-06T13:06:11.854Z,19.41
2023-11-06T13:08:38.219Z,19.43
2023-11-06T13:11:06.499Z,19.47
2023-11-06T13:13:33.391Z,19.48
2023-11-06T13:15:59.676Z,19.47
2023-11-06T13:18:25.975Z,19.49
2023-11-06T13:20:52.261Z,19.48
2023-11-06T13:23:18.542Z,19.47
2023-11-06T13:25:44.810Z,19.47
2023-11-06T13:28:11.074Z,19.41
2023-11-06T13:30:37.339Z,19.36
2023-11-06T13:33:03.779Z,19.32
2023-11-06T13:35:30.199Z,19.25
2023-11-06T13:37:56.509Z,19.22
2023-11-06T13:40:22.968Z,19.23
2023-11-06T13:42:50.101Z,19.19
2023-11-06T13:45:16.379Z,19.17
2023-11-06T13:47:42.713Z,19.13
2023-11-06T13:50:09.119Z,19.13
2023-11-06T13:52:35.387Z,19.13
2023-11-06T13:55:01.671Z,19.08
2023-11-06T13:57:27.921Z,19.07
2023-11-06T13:59:54.171Z,19.08
2023-11-06T14:02:20.518Z,19.07
2023-11-06T14:04:47.011Z,19.05
2023-11-06T14:07:13.342Z,19.10
2023-11-06T14:09:39.643Z,19.07
2023-11-06T14:12:06.419Z,19.06
2023-11-06T14:14:33.019Z,19.07
2023-11-06T14:16:59.355Z,19.05
2023-11-06T14:19:25.610Z,18.95
2023-11-06T14:21:51.913Z,18.93
2023-11-06T14:24:18.179Z,18.93
2023-11-06T14:26:44.483Z,18.92
2023-11-06T14:29:10.789Z,18.93
2023-11-06T14:31:37.081Z,18.97
2023-11-06T14:34:03.396Z,18.94
2023-11-06T14:36:29.681Z,18.99
2023-11-06T14:38:55.989Z,18.97
2023-11-06T14:41:22.264Z,18.98
2023-11-06T14:43:48.576Z,19.01
2023-11-06T14:46:14.828Z,18.97
2023-11-06T14:48:47.852Z,19.03
2023-11-06T14:51:16.960Z,18.93
2023-11-06T14:53:43.239Z,18.82
2023-11-06T14:56:09.595Z,18.88
2023-11-06T14:58:35.975Z,18.72
2023-11-06T15:01:02.241Z,18.45
2023-11-06T15:03:28.590Z,18.35
2023-11-06T15:05:54.971Z,18.32
2023-11-06T15:08:21.263Z,18.04
2023-11-06T15:10:47.535Z,18.16
2023-11-06T15:13:13.781Z,17.99
2023-11-06T15:15:40.204Z,17.87
2023-11-06T15:18:06.566Z,17.90
2023-11-06T15:20:32.888Z,17.92
2023-11-06T15:22:59.138Z,17.94
2023-11-06T15:25:25.414Z,18.02
2023-11-06T15:27:51.671Z,17.88
2023-11-06T15:30:17.955Z,17.91
2023-11-06T15:32:44.320Z,17.83
2023-11-06T15:35:10.832Z,17.69
2023-11-06T15:37:37.165Z,17.72
2023-11-06T15:40:03.499Z,17.64
2023-11-06T15:42:29.755Z,17.59
2023-11-06T15:44:56.014Z,17.49
2023-11-06T15:47:22.289Z,17.42
2023-11-06T15:49:48.549Z,18.00
2023-11-06T15:52:14.808Z,18.40
2023-11-06T15:54:41.061Z,18.69
2023-11-06T15:57:07.314Z,18.89
2023-11-06T15:59:33.621Z,18.99
2023-11-06T16:01:59.951Z,19.14
2023-11-06T16:04:27.939Z,19.18
2023-11-06T16:06:55.495Z,19.25
2023-11-06T16:09:21.752Z,19.25
2023-11-06T16:11:48.119Z,19.28
2023-11-06T16:14:14.418Z,19.28
2023-11-06T16:16:40.723Z,19.28
2023-11-06T16:19:07.120Z,19.31
2023-11-06T16:21:33.408Z,19.31
2023-11-06T16:23:59.708Z,19.30
2023-11-06T16:26:26.010Z,19.32
2023-11-06T16:28:52.289Z,19.32
2023-11-06T16:31:18.539Z,19.31
2023-11-06T16:33:44.845Z,19.29
2023-11-06T16:36:11.210Z,19.29
2023-11-06T16:38:37.539Z,19.29
2023-11-06T16:41:03.837Z,19.28
2023-11-06T16:43:30.090Z,19.22
2023-11-06T16:45:56.346Z,19.21
2023-11-06T16:48:22.770Z,19.23
2023-11-06T16:50:49.169Z,19.22
2023-11-06T16:53:15.461Z,19.22
2023-11-06T16:55:41.735Z,19.21
2023-11-06T16:58:07.980Z,19.19
2023-11-06T17:00:34.238Z,19.19
2023-11-06T17:03:00.572Z,19.17
2023-11-06T17:05:26.987Z,19.16
2023-11-06T17:07:53.325Z,19.15
2023-11-06T17:10:19.617Z,19.15
2023-11-06T17:12:45.869Z,19.14
2023-11-06T17:15:12.175Z,19.15
2023-11-06T17:17:38.659Z,19.12
2023-11-06T17:20:04.964Z,19.11
2023-11-06T17:22:31.257Z,19.11
2023-11-06T17:24:57.506Z,19.09
2023-11-06T17:27:23.781Z,19.09
2023-11-06T17:29:50.085Z,19.08
2023-11-06T17:32:16.561Z,19.09
2023-11-06T17:34:42.877Z,19.07
2023-11-06T17:37:09.161Z,19.07
2023-11-06T17:39:35.431Z,19.04
2023-11-06T17:42:01.690Z,19.05
2023-11-06T17:44:28.059Z,19.01
2023-11-06T17:46:54.369Z,19.01
2023-11-06T17:49:20.639Z,18.99
2023-11-06T17:51:47.004Z,18.99
2023-11-06T17:54:13.336Z,18.98
2023-11-06T17:56:39.804Z,18.97
2023-11-06T17:59:06.122Z,18.95
2023-11-06T18:01:32.615Z,18.91
2023-11-06T18:03:59.052Z,18.89
2023-11-06T18:06:25.495Z,18.89
2023-11-06T18:08:51.808Z,18.88
2023-11-06T18:11:18.126Z,18.85
2023-11-06T18:13:44.461Z,18.85
2023-11-06T18:16:10.784Z,18.84
2023-11-06T18:18:37.272Z,18.85
2023-11-06T18:21:03.595Z,18.81
2023-11-06T18:23:29.930Z,18.79
2023-11-06T18:25:56.201Z,18.79
2023-11-06T18:28:22.455Z,18.77
2023-11-06T18:30:48.906Z,18.77
2023-11-06T18:33:15.272Z,18.79
2023-11-06T18:35:41.582Z,18.78
2023-11-06T18:38:08.112Z,18.78
2023-11-06T18:40:34.383Z,18.78
2023-11-06T18:43:00.636Z,18.77
2023-11-06T18:45:26.927Z,18.76
2023-11-06T18:47:53.413Z,18.76
2023-11-06T18:50:19.874Z,18.79
2023-11-06T18:52:46.417Z,18.77
2023-11-06T18:55:12.976Z,18.76
2023-11-06T18:57:39.511Z,18.74
2023-11-06T19:00:05.902Z,18.72
2023-11-06T19:02:32.405Z,18.74
2023-11-06T19:04:58.851Z,18.70
2023-11-06T19:07:25.294Z,18.68
2023-11-06T19:09:51.776Z,18.73
2023-11-06T19:12:18.065Z,18.69
2023-11-06T19:14:44.469Z,18.69
2023-11-06T19:17:10.851Z,18.71
2023-11-06T19:19:37.287Z,18.67
2023-11-06T19:22:03.552Z,18.66
2023-11-06T19:24:29.808Z,18.65
2023-11-06T19:26:56.153Z,18.64
2023-11-06T19:29:22.569Z,18.66
2023-11-06T19:31:48.986Z,18.68
2023-11-06T19:34:15.302Z,18.77
2023-11-06T19:36:41.596Z,18.73
2023-11-06T19:39:07.980Z,18.71
2023-11-06T19:41:34.326Z,18.68
2023-11-06T19:44:00.579Z,18.59
2023-11-06T19:46:26.940Z,18.62
2023-11-06T19:48:53.505Z,18.58
2023-11-06T19:51:19.808Z,18.52
2023-11-06T19:53:46.413Z,18.54
2023-11-06T19:56:12.780Z,18.52
2023-11-06T19:58:39.055Z,18.46
2023-11-06T20:01:05.313Z,18.50
2023-11-06T20:03:31.671Z,18.47
2023-11-06T20:05:58.064Z,18.43
2023-11-06T20:08:24.651Z,18.46
2023-11-06T20:10:51.226Z,18.44
2023-11-06T20:13:20.680Z,18.41
2023-11-06T20:15:46.940Z,18.40
2023-11-06T20:18:13.483Z,18.35
2023-11-06T20:20:40.005Z,18.33
2023-11-06T20:23:06.314Z,18.33
2023-11-06T20:25:34.992Z,18.32
2023-11-06T20:28:01.298Z,18.29
2023-11-06T20:30:27.557Z,18.30
2023-11-06T20:32:54.031Z,18.28
2023-11-06T20:35:20.452Z,18.25
2023-11-06T20:37:46.781Z,18.24
2023-11-06T20:40:13.377Z,18.23
2023-11-06T20:42:39.753Z,18.20
2023-11-06T20:45:06.003Z,18.19
2023-11-06T20:47:32.362Z,18.17
2023-11-06T20:49:58.829Z,18.14
2023-11-06T20:52:25.269Z,18.10
2023-11-06T20:54:51.738Z,18.06
2023-11-06T20:57:17.982Z,18.07
2023-11-06T20:59:44.323Z,18.10
2023-11-06T21:02:10.594Z,18.08
2023-11-06T21:04:37.057Z,18.07
2023-11-06T21:07:03.391Z,18.04
2023-11-06T21:09:29.653Z,18.06
2023-11-06T21:11:56.187Z,18.04
2023-11-06T21:14:22.457Z,18.04
2023-11-06T21:16:50.167Z,18.01
2023-11-06T21:19:17.581Z,17.94
2023-11-06T21:21:43.878Z,17.91
2023-11-06T21:24:10.220Z,17.91
2023-11-06T21:26:36.695Z,17.93
2023-11-06T21:29:02.984Z,17.93
2023-11-06T21:31:29.609Z,17.90
2023-11-06T21:33:56.155Z,17.93
2023-11-06T21:36:22.598Z,17.90
2023-11-06T21:38:48.918Z,17.89
2023-11-06T21:41:15.204Z,17.88
2023-11-06T21:43:41.468Z,17.85
2023-11-06T21:46:07.763Z,17.84
2023-11-06T21:48:34.150Z,17.82
2023-11-06T21:51:00.527Z,17.77
2023-11-06T21:53:26.874Z,17.78
2023-11-06T21:55:53.138Z,17.79
2023-11-06T21:58:29.319Z,17.75
2023-11-06T22:00:56.444Z,17.75
2023-11-06T22:03:22.774Z,17.72
2023-11-06T22:05:49.221Z,17.69
2023-11-06T22:08:15.536Z,17.69
2023-11-06T22:10:41.805Z,17.70
2023-11-06T22:13:08.065Z,17.71
2023-11-06T22:15:34.342Z,17.67
2023-11-06T22:18:02.682Z,17.65
2023-11-06T22:20:29.558Z,17.65
2023-11-06T22:22:55.826Z,17.62
2023-11-06T22:25:22.069Z,17.58
2023-11-06T22:27:48.328Z,17.58
2023-11-06T22:30:14.673Z,17.59
2023-11-06T22:32:41.015Z,17.64
2023-11-06T22:35:07.305Z,17.60
2023-11-06T22:37:33.560Z,17.54
2023-11-06T22:39:59.805Z,17.54
2023-11-06T22:42:26.066Z,17.52
2023-11-06T22:44:52.614Z,17.50
2023-11-06T22:47:18.914Z,17.46
2023-11-06T22:49:45.326Z,17.47
2023-11-06T22:52:11.599Z,17.49
2023-11-06T22:54:37.931Z,17.46
2023-11-06T22:57:04.207Z,17.44
2023-11-06T22:59:30.548Z,17.47
2023-11-06T23:01:56.907Z,17.40
2023-11-06T23:04:23.305Z,17.39
2023-11-06T23:06:49.659Z,17.39
2023-11-06T23:09:15.916Z,17.39
2023-11-06T23:11:42.367Z,17.37
2023-11-06T23:14:08.678Z,17.35
2023-11-06T23:16:35.553Z,17.36
2023-11-06T23:19:02.550Z,17.35
2023-11-06T23:21:28.850Z,17.34
2023-11-06T23:23:55.162Z,17.30
2023-11-06T23:26:21.930Z,17.29
2023-11-06T23:28:51.425Z,17.33
2023-11-06T23:31:17.681Z,17.33
2023-11-06T23:33:44.024Z,17.28
2023-11-06T23:36:10.372Z,17.27
2023-11-06T23:38:36.858Z,17.29
2023-11-06T23:41:03.118Z,17.26
2023-11-06T23:43:29.364Z,17.27
2023-11-06T23:45:55.744Z,17.26
2023-11-06T23:48:22.244Z,17.23
2023-11-06T23:50:48.593Z,17.21
2023-11-06T23:53:14.903Z,17.23
2023-11-06T23:55:41.190Z,17.23
2023-11-06T23:58:07.522Z,17.20
